LNE617 SKBQ-SEQM
Flight info
| Callsign | LNE617 |
|---|---|
| Flight time | N/A |
| Altitude | 330000 |
| Route | VOVLU2D VOVLU W46 MGN UW3 SERVO/N0468F350 UW3 MRN/N0469F340 UW26 RNG/N0467F350 UP778 BOKAN UP533 QIT |
| Aircraft | B763/H-SDE3FGHIM3RWXY/LB1 |
Departure
| Time | 2026-04-28 19:24 |
|---|---|
| Airport | Ernesto Cortissoz International Airport (SKBQ) |
Arrival
| Time | N/A |
|---|---|
| Airport | Mariscal Sucre International Airport (SEQM) |
| Time | Latitude | Longitude | Altitude | Speed | Heading |
|---|---|---|---|---|---|
| 2026-04-28 18:17 | 10.89440 | -74.77223 | 73 ft | 0 kts | 129° |
| 2026-04-28 19:09 | 10.89443 | -74.77227 | 74 ft | 2 kts | 129° |
| 2026-04-28 19:09 | 10.89452 | -74.77239 | 74 ft | 2 kts | 129° |
| 2026-04-28 19:10 | 10.89462 | -74.77251 | 74 ft | 2 kts | 129° |
| 2026-04-28 19:10 | 10.89471 | -74.77263 | 74 ft | 1 kts | 129° |
| 2026-04-28 19:10 | 10.89478 | -74.77271 | 74 ft | 2 kts | 117° |
| 2026-04-28 19:10 | 10.89481 | -74.77286 | 74 ft | 2 kts | 77° |
| 2026-04-28 19:11 | 10.89475 | -74.77299 | 75 ft | 1 kts | 44° |
| 2026-04-28 19:11 | 10.89470 | -74.77303 | 75 ft | 1 kts | 37° |
| 2026-04-28 19:11 | 10.89468 | -74.77305 | 75 ft | 0 kts | 39° |
| 2026-04-28 19:14 | 10.89479 | -74.77296 | 74 ft | 4 kts | 40° |
| 2026-04-28 19:15 | 10.89512 | -74.77267 | 74 ft | 7 kts | 40° |
| 2026-04-28 19:15 | 10.89562 | -74.77224 | 73 ft | 11 kts | 40° |
| 2026-04-28 19:15 | 10.89631 | -74.77193 | 72 ft | 11 kts | 345° |
| 2026-04-28 19:15 | 10.89675 | -74.77217 | 72 ft | 7 kts | 305° |
| 2026-04-28 19:16 | 10.89649 | -74.77252 | 72 ft | 6 kts | 213° |
| 2026-04-28 19:16 | 10.89609 | -74.77280 | 73 ft | 7 kts | 219° |
| 2026-04-28 19:16 | 10.89569 | -74.77315 | 74 ft | 8 kts | 220° |
| 2026-04-28 19:16 | 10.89524 | -74.77354 | 75 ft | 8 kts | 220° |
| 2026-04-28 19:17 | 10.89472 | -74.77398 | 76 ft | 10 kts | 220° |
| 2026-04-28 19:17 | 10.89410 | -74.77451 | 77 ft | 12 kts | 220° |
| 2026-04-28 19:17 | 10.89337 | -74.77513 | 79 ft | 14 kts | 220° |
| 2026-04-28 19:17 | 10.89251 | -74.77586 | 80 ft | 17 kts | 219° |
| 2026-04-28 19:18 | 10.89154 | -74.77670 | 82 ft | 19 kts | 220° |
| 2026-04-28 19:18 | 10.89047 | -74.77763 | 84 ft | 21 kts | 220° |
| 2026-04-28 19:18 | 10.88925 | -74.77868 | 86 ft | 23 kts | 220° |
| 2026-04-28 19:18 | 10.88800 | -74.77976 | 88 ft | 23 kts | 220° |
| 2026-04-28 19:19 | 10.88673 | -74.78085 | 91 ft | 23 kts | 218° |
| 2026-04-28 19:19 | 10.88547 | -74.78190 | 94 ft | 23 kts | 220° |
| 2026-04-28 19:19 | 10.88424 | -74.78295 | 96 ft | 23 kts | 219° |
| 2026-04-28 19:19 | 10.88299 | -74.78401 | 100 ft | 22 kts | 220° |
| 2026-04-28 19:20 | 10.88180 | -74.78503 | 103 ft | 22 kts | 220° |
| 2026-04-28 19:20 | 10.88144 | -74.78534 | 104 ft | 23 kts | 220° |
| 2026-04-28 19:21 | 10.88104 | -74.78569 | 104 ft | 23 kts | 220° |
| 2026-04-28 19:21 | 10.87978 | -74.78677 | 106 ft | 24 kts | 220° |
| 2026-04-28 19:21 | 10.87873 | -74.78784 | 107 ft | 19 kts | 251° |
| 2026-04-28 19:21 | 10.87864 | -74.78869 | 108 ft | 9 kts | 276° |
| 2026-04-28 19:22 | 10.87898 | -74.78924 | 109 ft | 9 kts | 310° |
| 2026-04-28 19:22 | 10.87911 | -74.78940 | 109 ft | 6 kts | 310° |
| 2026-04-28 19:22 | 10.87960 | -74.78945 | 109 ft | 5 kts | 39° |
| 2026-04-28 19:22 | 10.87967 | -74.78940 | 109 ft | 0 kts | 40° |
| 2026-04-28 19:23 | 10.87967 | -74.78939 | 109 ft | 1 kts | 40° |
| 2026-04-28 19:23 | 10.88125 | -74.78803 | 107 ft | 62 kts | 40° |
| 2026-04-28 19:24 | 10.88625 | -74.78376 | 96 ft | 124 kts | 40° |
| 2026-04-28 19:24 | 10.89435 | -74.77681 | 109 ft | 176 kts | 38° |
| 2026-04-28 19:24 | 10.90384 | -74.76863 | 778 ft | 182 kts | 42° |
| 2026-04-28 19:24 | 10.91344 | -74.76056 | 1627 ft | 180 kts | 41° |
| 2026-04-28 19:25 | 10.92294 | -74.75238 | 2322 ft | 185 kts | 42° |
| 2026-04-28 19:25 | 10.93295 | -74.74376 | 2968 ft | 191 kts | 40° |
| 2026-04-28 19:25 | 10.94280 | -74.73525 | 3621 ft | 192 kts | 39° |
| 2026-04-28 19:25 | 10.95525 | -74.72900 | 3907 ft | 212 kts | 9° |
| 2026-04-28 19:26 | 10.97051 | -74.73128 | 4139 ft | 239 kts | 334° |
| 2026-04-28 19:26 | 10.98328 | -74.74268 | 4571 ft | 256 kts | 304° |
| 2026-04-28 19:26 | 10.99283 | -74.75882 | 5088 ft | 271 kts | 304° |
| 2026-04-28 19:26 | 11.00358 | -74.77489 | 5618 ft | 283 kts | 307° |
| 2026-04-28 19:27 | 11.01553 | -74.79142 | 6327 ft | 289 kts | 308° |
| 2026-04-28 19:27 | 11.02771 | -74.80776 | 7137 ft | 291 kts | 309° |
| 2026-04-28 19:27 | 11.04030 | -74.82436 | 7863 ft | 296 kts | 309° |
| 2026-04-28 19:27 | 11.05278 | -74.84071 | 8614 ft | 299 kts | 308° |
| 2026-04-28 19:28 | 11.06256 | -74.85938 | 9384 ft | 302 kts | 285° |
| 2026-04-28 19:28 | 11.06387 | -74.88054 | 10074 ft | 305 kts | 259° |
| 2026-04-28 19:28 | 11.05632 | -74.90114 | 10568 ft | 316 kts | 237° |
| 2026-04-28 19:28 | 11.04157 | -74.91896 | 10940 ft | 331 kts | 219° |
| 2026-04-28 19:29 | 11.02318 | -74.93381 | 11303 ft | 347 kts | 217° |
| 2026-04-28 19:29 | 11.01070 | -74.94412 | 11710 ft | 353 kts | 218° |
| 2026-04-28 19:29 | 10.98539 | -74.96536 | 12793 ft | 356 kts | 218° |
| 2026-04-28 19:29 | 10.96604 | -74.98179 | 13564 ft | 360 kts | 219° |
| 2026-04-28 19:30 | 10.94685 | -74.99814 | 14315 ft | 363 kts | 219° |
| 2026-04-28 19:30 | 10.92729 | -75.01485 | 15059 ft | 366 kts | 219° |
| 2026-04-28 19:30 | 10.90748 | -75.03178 | 15793 ft | 370 kts | 219° |
| 2026-04-28 19:30 | 10.88790 | -75.04855 | 16505 ft | 373 kts | 219° |
| 2026-04-28 19:31 | 10.86706 | -75.06552 | 17206 ft | 376 kts | 213° |
| 2026-04-28 19:31 | 10.84311 | -75.07732 | 17880 ft | 378 kts | 197° |
| 2026-04-28 19:31 | 10.81716 | -75.08187 | 18545 ft | 380 kts | 181° |
| 2026-04-28 19:31 | 10.79066 | -75.07952 | 19191 ft | 384 kts | 170° |
| 2026-04-28 19:32 | 10.76439 | -75.07491 | 19862 ft | 386 kts | 171° |
| 2026-04-28 19:32 | 10.73774 | -75.07023 | 20479 ft | 390 kts | 170° |
| 2026-04-28 19:32 | 10.71058 | -75.06541 | 21093 ft | 394 kts | 170° |
| 2026-04-28 19:32 | 10.68352 | -75.06058 | 21704 ft | 397 kts | 170° |
| 2026-04-28 19:33 | 10.65578 | -75.05561 | 22326 ft | 400 kts | 171° |
| 2026-04-28 19:33 | 10.62828 | -75.05068 | 22929 ft | 403 kts | 171° |
| 2026-04-28 19:33 | 10.59980 | -75.04558 | 23519 ft | 406 kts | 171° |
| 2026-04-28 19:33 | 10.57194 | -75.04058 | 24124 ft | 410 kts | 171° |
| 2026-04-28 19:34 | 10.54351 | -75.03548 | 24791 ft | 413 kts | 171° |
| 2026-04-28 19:34 | 10.51472 | -75.03032 | 25446 ft | 418 kts | 171° |
| 2026-04-28 19:34 | 10.48582 | -75.02514 | 26086 ft | 421 kts | 171° |
| 2026-04-28 19:34 | 10.45739 | -75.02004 | 26695 ft | 425 kts | 172° |
| 2026-04-28 19:35 | 10.42799 | -75.01478 | 27290 ft | 429 kts | 172° |
| 2026-04-28 19:35 | 10.39813 | -75.00943 | 27883 ft | 433 kts | 172° |
| 2026-04-28 19:35 | 10.36825 | -75.00408 | 28455 ft | 437 kts | 172° |
| 2026-04-28 19:35 | 10.33779 | -74.99863 | 29024 ft | 441 kts | 173° |
| 2026-04-28 19:36 | 10.30744 | -74.99320 | 29560 ft | 445 kts | 173° |
| 2026-04-28 19:36 | 10.27645 | -74.98765 | 30106 ft | 449 kts | 173° |
| 2026-04-28 19:36 | 10.24566 | -74.98215 | 30650 ft | 452 kts | 173° |
| 2026-04-28 19:36 | 10.21341 | -74.97637 | 31362 ft | 451 kts | 173° |
| 2026-04-28 19:37 | 10.18293 | -74.97092 | 32057 ft | 450 kts | 173° |
| 2026-04-28 19:37 | 10.16247 | -74.96725 | 32512 ft | 448 kts | 173° |
| 2026-04-28 19:37 | 10.12165 | -74.95996 | 33004 ft | 450 kts | 173° |
| 2026-04-28 19:37 | 10.09083 | -74.95445 | 32985 ft | 448 kts | 173° |
| 2026-04-28 19:38 | 10.03014 | -74.94360 | 32994 ft | 443 kts | 173° |
| 2026-04-28 19:38 | 9.96950 | -74.93278 | 32994 ft | 445 kts | 173° |
| 2026-04-28 19:39 | 9.90863 | -74.92191 | 32993 ft | 445 kts | 173° |
| 2026-04-28 19:39 | 9.84818 | -74.91112 | 32996 ft | 445 kts | 173° |
| 2026-04-28 19:40 | 9.78701 | -74.90020 | 32996 ft | 445 kts | 173° |
| 2026-04-28 19:40 | 9.72656 | -74.88942 | 32996 ft | 445 kts | 173° |
| 2026-04-28 19:41 | 9.66558 | -74.87854 | 32996 ft | 445 kts | 173° |
| 2026-04-28 19:41 | 9.60471 | -74.86769 | 32995 ft | 445 kts | 173° |
| 2026-04-28 19:42 | 9.54393 | -74.85686 | 33002 ft | 445 kts | 173° |
| 2026-04-28 19:42 | 9.49337 | -74.84951 | 33008 ft | 442 kts | 180° |
| 2026-04-28 19:43 | 9.42219 | -74.84835 | 33022 ft | 441 kts | 182° |
| 2026-04-28 19:43 | 9.36081 | -74.84767 | 33023 ft | 441 kts | 182° |
| 2026-04-28 19:44 | 9.29961 | -74.84720 | 33020 ft | 440 kts | 184° |
| 2026-04-28 19:44 | 9.23943 | -74.85465 | 33022 ft | 438 kts | 191° |
| 2026-04-28 19:45 | 9.17958 | -74.86373 | 33021 ft | 437 kts | 191° |
| 2026-04-28 19:45 | 9.11977 | -74.87294 | 33021 ft | 437 kts | 191° |
| 2026-04-28 19:46 | 9.05983 | -74.88221 | 33021 ft | 437 kts | 191° |
| 2026-04-28 19:46 | 8.99964 | -74.89153 | 33021 ft | 437 kts | 191° |
| 2026-04-28 19:47 | 8.94005 | -74.90075 | 33019 ft | 437 kts | 191° |
| 2026-04-28 19:47 | 8.87992 | -74.91006 | 33019 ft | 437 kts | 191° |
| 2026-04-28 19:48 | 8.81929 | -74.91944 | 33019 ft | 437 kts | 191° |
| 2026-04-28 19:48 | 8.75979 | -74.92864 | 33017 ft | 437 kts | 191° |
| 2026-04-28 19:49 | 8.69996 | -74.93790 | 33016 ft | 437 kts | 191° |
| 2026-04-28 19:49 | 8.64022 | -74.94713 | 33015 ft | 437 kts | 191° |
| 2026-04-28 19:50 | 8.55051 | -74.96100 | 33014 ft | 437 kts | 191° |
| 2026-04-28 19:51 | 8.49031 | -74.97030 | 33011 ft | 437 kts | 191° |
| 2026-04-28 19:51 | 8.43048 | -74.97953 | 33022 ft | 437 kts | 191° |
| 2026-04-28 19:52 | 8.37061 | -74.98878 | 33041 ft | 437 kts | 191° |
| 2026-04-28 19:52 | 8.31083 | -74.99800 | 33059 ft | 436 kts | 191° |
| 2026-04-28 19:53 | 8.25088 | -75.00726 | 33061 ft | 436 kts | 191° |
| 2026-04-28 19:53 | 8.19116 | -75.01646 | 33060 ft | 436 kts | 191° |
| 2026-04-28 19:54 | 8.13150 | -75.02566 | 33058 ft | 436 kts | 191° |
| 2026-04-28 19:54 | 8.07175 | -75.03487 | 33057 ft | 436 kts | 191° |
| 2026-04-28 19:55 | 8.01198 | -75.04408 | 33056 ft | 436 kts | 191° |
| 2026-04-28 19:55 | 7.95220 | -75.05331 | 33056 ft | 438 kts | 190° |
| 2026-04-28 19:56 | 7.89206 | -75.06256 | 33054 ft | 437 kts | 190° |
| 2026-04-28 19:56 | 7.83188 | -75.07182 | 33055 ft | 437 kts | 190° |
| 2026-04-28 19:57 | 7.77173 | -75.08108 | 33090 ft | 437 kts | 190° |
| 2026-04-28 19:57 | 7.71195 | -75.09027 | 33133 ft | 437 kts | 190° |
| 2026-04-28 19:58 | 7.65176 | -75.09940 | 33174 ft | 437 kts | 190° |
| 2026-04-28 19:58 | 7.59182 | -75.10850 | 33177 ft | 437 kts | 190° |
| 2026-04-28 19:59 | 7.53228 | -75.11752 | 33181 ft | 437 kts | 190° |
| 2026-04-28 19:59 | 7.47241 | -75.12660 | 33183 ft | 437 kts | 190° |
| 2026-04-28 20:00 | 7.41247 | -75.13570 | 33184 ft | 437 kts | 190° |
| 2026-04-28 20:00 | 7.35244 | -75.14479 | 33182 ft | 437 kts | 190° |
| 2026-04-28 20:01 | 7.29248 | -75.15387 | 33183 ft | 437 kts | 190° |
| 2026-04-28 20:01 | 7.23277 | -75.16292 | 33182 ft | 437 kts | 190° |
| 2026-04-28 20:02 | 7.17243 | -75.17206 | 33169 ft | 438 kts | 190° |
| 2026-04-28 20:02 | 7.11242 | -75.18114 | 33190 ft | 438 kts | 190° |
| 2026-04-28 20:03 | 7.05218 | -75.19025 | 33221 ft | 438 kts | 190° |
| 2026-04-28 20:03 | 6.99221 | -75.19937 | 33235 ft | 438 kts | 190° |
| 2026-04-28 20:04 | 6.93212 | -75.20856 | 33236 ft | 439 kts | 190° |
| 2026-04-28 20:04 | 6.87184 | -75.21777 | 33238 ft | 438 kts | 190° |
| 2026-04-28 20:05 | 6.81143 | -75.22701 | 33238 ft | 438 kts | 190° |
| 2026-04-28 20:05 | 6.75160 | -75.23614 | 33238 ft | 438 kts | 190° |
| 2026-04-28 20:06 | 6.69144 | -75.24533 | 33239 ft | 439 kts | 190° |
| 2026-04-28 20:06 | 6.63108 | -75.25455 | 33249 ft | 439 kts | 190° |
| 2026-04-28 20:07 | 6.57110 | -75.26369 | 33259 ft | 438 kts | 190° |
| 2026-04-28 20:07 | 6.51070 | -75.27291 | 33264 ft | 439 kts | 190° |
| 2026-04-28 20:08 | 6.45060 | -75.28208 | 33264 ft | 439 kts | 190° |
| 2026-04-28 20:08 | 6.39057 | -75.29124 | 33263 ft | 439 kts | 189° |
| 2026-04-28 20:09 | 6.33054 | -75.30039 | 33263 ft | 439 kts | 189° |
| 2026-04-28 20:09 | 6.27018 | -75.30959 | 33263 ft | 439 kts | 189° |
| 2026-04-28 20:10 | 6.21023 | -75.31873 | 33263 ft | 439 kts | 190° |
| 2026-04-28 20:10 | 6.15238 | -75.33635 | 33273 ft | 437 kts | 205° |
| 2026-04-28 20:11 | 6.09704 | -75.36249 | 33586 ft | 441 kts | 206° |
| 2026-04-28 20:11 | 6.06983 | -75.37547 | 34289 ft | 437 kts | 206° |
| 2026-04-28 20:11 | 6.04230 | -75.38867 | 34926 ft | 434 kts | 206° |
| 2026-04-28 20:11 | 6.01513 | -75.40172 | 35287 ft | 434 kts | 206° |
| 2026-04-28 20:12 | 5.98802 | -75.41476 | 35277 ft | 434 kts | 206° |
| 2026-04-28 20:12 | 5.93241 | -75.43700 | 35306 ft | 431 kts | 201° |
| 2026-04-28 20:13 | 5.87630 | -75.45848 | 35319 ft | 432 kts | 202° |
| 2026-04-28 20:13 | 5.82026 | -75.47999 | 35318 ft | 431 kts | 202° |
| 2026-04-28 20:14 | 5.76423 | -75.50151 | 35318 ft | 431 kts | 202° |
| 2026-04-28 20:14 | 5.70950 | -75.52254 | 35318 ft | 431 kts | 202° |
| 2026-04-28 20:15 | 5.65328 | -75.54415 | 35317 ft | 431 kts | 202° |
| 2026-04-28 20:15 | 5.59752 | -75.56557 | 35317 ft | 431 kts | 202° |
| 2026-04-28 20:16 | 5.54168 | -75.58702 | 35290 ft | 432 kts | 202° |
| 2026-04-28 20:16 | 5.48562 | -75.60855 | 35290 ft | 432 kts | 202° |
| 2026-04-28 20:17 | 5.43074 | -75.62962 | 35290 ft | 432 kts | 202° |
| 2026-04-28 20:17 | 5.37487 | -75.65107 | 35315 ft | 432 kts | 202° |
| 2026-04-28 20:18 | 5.31884 | -75.67257 | 35346 ft | 432 kts | 202° |
| 2026-04-28 20:18 | 5.26316 | -75.69394 | 35372 ft | 432 kts | 202° |
| 2026-04-28 20:19 | 5.22570 | -75.70831 | 35374 ft | 433 kts | 201° |
| 2026-04-28 20:19 | 5.21641 | -75.71188 | 35374 ft | 433 kts | 201° |
| 2026-04-28 20:20 | 5.03883 | -75.77998 | 35372 ft | 433 kts | 202° |
| 2026-04-28 20:21 | 4.98280 | -75.80146 | 35372 ft | 433 kts | 202° |
| 2026-04-28 20:21 | 4.92670 | -75.82296 | 35372 ft | 433 kts | 202° |
| 2026-04-28 20:22 | 4.87043 | -75.84453 | 35374 ft | 433 kts | 202° |
| 2026-04-28 20:22 | 4.81396 | -75.86616 | 35344 ft | 433 kts | 202° |
| 2026-04-28 20:23 | 4.75817 | -75.88754 | 35285 ft | 434 kts | 201° |
| 2026-04-28 20:23 | 4.70155 | -75.90923 | 35202 ft | 435 kts | 202° |
| 2026-04-28 20:24 | 4.64545 | -75.93072 | 35137 ft | 435 kts | 201° |
| 2026-04-28 20:24 | 4.58912 | -75.95228 | 35109 ft | 435 kts | 201° |
| 2026-04-28 20:25 | 4.53271 | -75.97388 | 35099 ft | 436 kts | 201° |
| 2026-04-28 20:25 | 4.47597 | -75.99559 | 35089 ft | 436 kts | 201° |
| 2026-04-28 20:26 | 4.41968 | -76.01714 | 35079 ft | 436 kts | 201° |
| 2026-04-28 20:26 | 4.36289 | -76.03886 | 35069 ft | 436 kts | 201° |
| 2026-04-28 20:27 | 4.30683 | -76.06032 | 35059 ft | 436 kts | 201° |
| 2026-04-28 20:27 | 4.25005 | -76.08203 | 35058 ft | 437 kts | 201° |
| 2026-04-28 20:28 | 4.19349 | -76.10366 | 35067 ft | 436 kts | 201° |
| 2026-04-28 20:28 | 4.13686 | -76.12532 | 35075 ft | 436 kts | 201° |
| 2026-04-28 20:29 | 4.08031 | -76.14694 | 35075 ft | 436 kts | 201° |
| 2026-04-28 20:29 | 4.02359 | -76.16863 | 35074 ft | 436 kts | 201° |
| 2026-04-28 20:30 | 3.96692 | -76.19029 | 35074 ft | 436 kts | 201° |
| 2026-04-28 20:30 | 3.91003 | -76.21203 | 35074 ft | 436 kts | 201° |
| 2026-04-28 20:31 | 3.85330 | -76.23370 | 35076 ft | 436 kts | 201° |
| 2026-04-28 20:31 | 3.79663 | -76.25535 | 35075 ft | 436 kts | 201° |
| 2026-04-28 20:32 | 3.74009 | -76.27696 | 35076 ft | 437 kts | 201° |
| 2026-04-28 20:32 | 3.68319 | -76.29868 | 35074 ft | 437 kts | 201° |
| 2026-04-28 20:33 | 3.62627 | -76.32042 | 35067 ft | 437 kts | 201° |
| 2026-04-28 20:33 | 3.56921 | -76.34221 | 35059 ft | 437 kts | 201° |
| 2026-04-28 20:34 | 3.51222 | -76.36397 | 35049 ft | 437 kts | 201° |
| 2026-04-28 20:34 | 3.45528 | -76.38570 | 35048 ft | 437 kts | 201° |
| 2026-04-28 20:35 | 3.39886 | -76.40841 | 35045 ft | 436 kts | 207° |
| 2026-04-28 20:35 | 3.34545 | -76.43828 | 35047 ft | 436 kts | 210° |
| 2026-04-28 20:36 | 3.29262 | -76.46823 | 35047 ft | 436 kts | 210° |
| 2026-04-28 20:36 | 3.23970 | -76.49834 | 35047 ft | 436 kts | 210° |
| 2026-04-28 20:37 | 3.18783 | -76.52788 | 35046 ft | 436 kts | 210° |
| 2026-04-28 20:37 | 3.13381 | -76.55865 | 35047 ft | 437 kts | 210° |
| 2026-04-28 20:38 | 3.08059 | -76.58896 | 35047 ft | 437 kts | 210° |
| 2026-04-28 20:38 | 3.02785 | -76.61900 | 35048 ft | 437 kts | 210° |
| 2026-04-28 20:39 | 2.97486 | -76.64917 | 35099 ft | 438 kts | 210° |
| 2026-04-28 20:39 | 2.92171 | -76.67943 | 35152 ft | 437 kts | 210° |
| 2026-04-28 20:40 | 2.86990 | -76.70892 | 35204 ft | 436 kts | 210° |
| 2026-04-28 20:40 | 2.81683 | -76.73914 | 35211 ft | 438 kts | 210° |
| 2026-04-28 20:41 | 2.76378 | -76.76933 | 35211 ft | 437 kts | 210° |
| 2026-04-28 20:41 | 2.71109 | -76.79932 | 35211 ft | 437 kts | 210° |
| 2026-04-28 20:42 | 2.65772 | -76.82970 | 35192 ft | 437 kts | 210° |
| 2026-04-28 20:42 | 2.60550 | -76.85941 | 35165 ft | 437 kts | 210° |
| 2026-04-28 20:43 | 2.55170 | -76.89002 | 35137 ft | 437 kts | 210° |
| 2026-04-28 20:43 | 2.49898 | -76.92001 | 35110 ft | 437 kts | 210° |
| 2026-04-28 20:44 | 2.45275 | -76.94631 | 35087 ft | 437 kts | 210° |
| 2026-04-28 20:44 | 2.39967 | -76.97651 | 35059 ft | 437 kts | 210° |
| 2026-04-28 20:45 | 2.34644 | -77.00678 | 35049 ft | 437 kts | 210° |
| 2026-04-28 20:45 | 2.29337 | -77.03696 | 35061 ft | 438 kts | 210° |
| 2026-04-28 20:46 | 2.23998 | -77.06733 | 35092 ft | 438 kts | 210° |
| 2026-04-28 20:46 | 2.18939 | -77.09610 | 35102 ft | 438 kts | 210° |
| 2026-04-28 20:47 | 2.18018 | -77.10133 | 35102 ft | 438 kts | 210° |